Terminal Aerodrome Forecast
Issued by NWS Huntsville, AL

Home | Current Version | Previous Version | Text Only | Print | Product List | Glossary On
Versions: 1 2 3 4 5 6 7 8 9 10 11 12 13 14 15 16 17 18 19 20 21 22 23 24 25 26 27 28 29 30 31 32 33 34
000
FTUS44 KHUN 231542 AAA
TAFMSL
TAF AMD
KMSL 231542Z 2316/2412 21018G25KT 5SM SHRA BR OVC020
      TEMPO 2316/2320 3SM -TSRA BR OVC012CB
     FM232100 23017G24KT P6SM -SHRA BKN018
     FM240100 23005KT 4SM BR OVC010=

USA.gov is the U.S. government's official web portal to all federal, state and local government web resources and services.